Seagoville's Hourly Summary for Saturday, April 15, 2017
Hour Temp
(f)
RH
(%)
Solar Rad.
(MJ/m2)
Rainfall
(in)
Wind
(mph)
4/15/2017 12:00 AM 65 79 0 0 3.91
4/15/2017 1:00 AM 66 80 0 0 6.51
4/15/2017 2:00 AM 66 82 0 0 6.73
4/15/2017 3:00 AM 64 86 0 0 3.11
4/15/2017 4:00 AM 63 92 0 0 2.64
4/15/2017 5:00 AM 62 92 0 0 2.97
4/15/2017 6:00 AM 64 90 0 0 5.65
4/15/2017 7:00 AM 64 89 0.24 0 4.18
4/15/2017 8:00 AM 66 84 0.43 0 5.59
4/15/2017 9:00 AM 68 76 1.2 0 8.77
4/15/2017 10:00 AM 71 67 2.21 0 10.33
4/15/2017 11:00 AM 73 64 2.2 0 9.05
4/15/2017 12:00 PM 75 57 2.48 0 9.31
4/15/2017 1:00 PM 76 53 2.26 0 8.85
4/15/2017 2:00 PM 77 54 2.1 0 10.11
4/15/2017 3:00 PM 77 54 1.39 0 9.2
4/15/2017 4:00 PM 77 54 1.37 0 9.06
4/15/2017 5:00 PM 77 55 0.68 0 7.12
4/15/2017 6:00 PM 76 58 0.34 0 5.62
4/15/2017 7:00 PM 75 59 0.14 0 4.57
4/15/2017 8:00 PM 71 71 0 0 3.17
4/15/2017 9:00 PM 68 79 0 0 2.84
4/15/2017 10:00 PM 67 83 0 0 2.34
4/15/2017 11:00 PM 66 83 0 0 2.43
Data Summary 69 72 17.04 0.00 6.00